createdAt,value
2023-03-19T00:01:51.977Z,48.71
2023-03-19T00:04:19.079Z,48.72
2023-03-19T00:06:46.226Z,48.79
2023-03-19T00:09:13.061Z,48.69
2023-03-19T00:11:39.925Z,48.71
2023-03-19T00:14:06.774Z,48.81
2023-03-19T00:16:33.968Z,48.87
2023-03-19T00:19:01.307Z,48.96
2023-03-19T00:21:30.551Z,49.05
2023-03-19T00:24:02.430Z,49.06
2023-03-19T00:26:30.468Z,49.11
2023-03-19T00:28:58.174Z,48.99
2023-03-19T00:31:26.298Z,49.02
2023-03-19T00:33:53.313Z,49.17
2023-03-19T00:36:20.295Z,49.28
2023-03-19T00:38:47.540Z,49.39
2023-03-19T00:41:15.491Z,49.48
2023-03-19T00:43:42.266Z,49.44
2023-03-19T00:46:09.247Z,49.53
2023-03-19T00:48:36.054Z,49.49
2023-03-19T00:51:08.103Z,49.49
2023-03-19T00:53:42.729Z,49.65
2023-03-19T00:56:11.700Z,49.67
2023-03-19T00:58:38.939Z,49.64
2023-03-19T01:01:06.739Z,49.64
2023-03-19T01:03:34.046Z,49.83
2023-03-19T01:06:01.015Z,49.69
2023-03-19T01:08:27.891Z,49.78
2023-03-19T01:10:54.738Z,49.80
2023-03-19T01:13:21.610Z,49.81
2023-03-19T01:15:52.561Z,49.77
2023-03-19T01:18:19.599Z,49.73
2023-03-19T01:20:46.396Z,49.93
2023-03-19T01:23:13.720Z,49.93
2023-03-19T01:25:40.570Z,50.29
2023-03-19T01:28:07.751Z,50.39
2023-03-19T01:30:37.366Z,50.38
2023-03-19T01:33:25.495Z,50.34
2023-03-19T01:36:06.033Z,50.36
2023-03-19T01:38:38.899Z,50.44
2023-03-19T01:41:10.193Z,50.23
2023-03-19T01:43:37.611Z,50.24
2023-03-19T01:46:27.211Z,50.38
2023-03-19T01:49:13.872Z,50.57
2023-03-19T01:51:47.493Z,50.35
2023-03-19T01:54:32.582Z,50.44
2023-03-19T01:57:16.552Z,50.40
2023-03-19T02:00:05.602Z,50.23
2023-03-19T02:02:47.323Z,50.49
2023-03-19T02:05:26.032Z,50.70
2023-03-19T02:07:59.574Z,50.76
2023-03-19T02:10:27.272Z,50.78
2023-03-19T02:12:54.212Z,50.75
2023-03-19T02:15:21.608Z,50.76
2023-03-19T02:17:48.979Z,50.83
2023-03-19T02:20:32.952Z,50.88
2023-03-19T02:23:20.928Z,51.03
2023-03-19T02:25:55.031Z,51.08
2023-03-19T02:28:23.583Z,51.11
2023-03-19T02:30:52.360Z,51.20
2023-03-19T02:33:19.456Z,51.29
2023-03-19T02:35:49.412Z,51.27
2023-03-19T02:38:17.870Z,51.21
2023-03-19T02:41:06.247Z,51.41
2023-03-19T02:43:35.499Z,51.37
2023-03-19T02:46:06.077Z,51.60
2023-03-19T02:48:33.146Z,51.54
2023-03-19T02:50:59.957Z,51.57
2023-03-19T02:53:27.207Z,51.54
2023-03-19T02:55:53.988Z,51.63
2023-03-19T02:58:20.997Z,51.63
2023-03-19T03:00:47.915Z,51.70
2023-03-19T03:03:14.747Z,51.64
2023-03-19T03:05:41.501Z,51.72
2023-03-19T03:08:09.416Z,51.68
2023-03-19T03:10:36.626Z,51.92
2023-03-19T03:13:05.554Z,51.92
2023-03-19T03:15:32.272Z,52.09
2023-03-19T03:17:59.191Z,52.14
2023-03-19T03:20:26.004Z,52.33
2023-03-19T03:22:53.760Z,52.20
2023-03-19T03:25:21.295Z,52.28
2023-03-19T03:27:48.389Z,52.26
2023-03-19T03:30:16.238Z,52.35
2023-03-19T03:32:44.075Z,52.19
2023-03-19T03:35:11.227Z,52.23
2023-03-19T03:37:39.737Z,52.24
2023-03-19T03:40:08.532Z,52.31
2023-03-19T03:42:37.489Z,52.36
2023-03-19T03:45:05.526Z,52.33
2023-03-19T03:47:32.701Z,52.35
2023-03-19T03:49:59.966Z,52.30
2023-03-19T03:52:31.428Z,52.25
2023-03-19T03:54:58.585Z,52.32
2023-03-19T03:57:26.727Z,52.36
2023-03-19T03:59:54.460Z,52.62
2023-03-19T04:02:21.828Z,52.53
2023-03-19T04:04:49.147Z,52.51
2023-03-19T04:07:16.049Z,52.53
2023-03-19T04:09:46.633Z,52.60
2023-03-19T04:12:14.250Z,52.69
2023-03-19T04:14:41.992Z,52.61
2023-03-19T04:17:09.597Z,52.59
2023-03-19T04:19:36.596Z,52.69
2023-03-19T04:22:03.688Z,52.60
2023-03-19T04:24:31.517Z,52.57
2023-03-19T04:26:58.510Z,52.56
2023-03-19T04:29:25.733Z,52.69
2023-03-19T04:31:52.661Z,52.74
2023-03-19T04:34:19.793Z,52.72
2023-03-19T04:36:47.372Z,52.78
2023-03-19T04:39:14.633Z,52.75
2023-03-19T04:41:41.874Z,52.86
2023-03-19T04:44:29.105Z,52.80
2023-03-19T04:46:56.224Z,52.93
2023-03-19T04:49:24.543Z,52.81
2023-03-19T04:51:51.990Z,52.98
2023-03-19T04:54:19.208Z,53.04
2023-03-19T04:56:46.026Z,52.92
2023-03-19T04:59:13.022Z,52.96
2023-03-19T05:01:40.020Z,52.68
2023-03-19T05:04:09.772Z,52.72
2023-03-19T05:06:40.060Z,52.58
2023-03-19T05:09:07.743Z,52.36
2023-03-19T05:11:34.918Z,52.28
2023-03-19T05:14:12.453Z,51.93
2023-03-19T05:16:56.250Z,51.59
2023-03-19T05:19:25.209Z,51.52
2023-03-19T05:21:52.769Z,51.37
2023-03-19T05:24:24.719Z,51.08
2023-03-19T05:26:52.458Z,50.43
2023-03-19T05:29:31.211Z,49.88
2023-03-19T05:32:21.215Z,49.34
2023-03-19T05:34:48.218Z,48.78
2023-03-19T05:37:15.428Z,48.15
2023-03-19T05:39:45.372Z,47.41
2023-03-19T05:42:14.783Z,46.67
2023-03-19T05:44:42.149Z,45.30
2023-03-19T05:47:27.128Z,44.19
2023-03-19T05:49:55.323Z,42.76
2023-03-19T05:52:22.993Z,41.60
2023-03-19T05:54:50.783Z,40.47
2023-03-19T05:57:30.329Z,39.71
2023-03-19T06:00:06.715Z,38.86
2023-03-19T06:02:34.482Z,38.12
2023-03-19T06:05:16.858Z,36.90
2023-03-19T06:07:44.034Z,36.56
2023-03-19T06:10:18.192Z,36.22
2023-03-19T06:12:45.958Z,35.73
2023-03-19T06:15:28.188Z,35.52
2023-03-19T06:18:07.455Z,35.18
2023-03-19T06:20:35.392Z,35.00
2023-03-19T06:23:02.748Z,34.55
2023-03-19T06:25:30.030Z,34.02
2023-03-19T06:27:56.769Z,33.25
2023-03-19T06:30:34.358Z,32.62
2023-03-19T06:33:03.069Z,31.89
2023-03-19T06:35:31.316Z,31.35
2023-03-19T06:37:58.426Z,30.86
2023-03-19T06:40:25.238Z,30.14
2023-03-19T06:42:52.456Z,29.35
2023-03-19T06:45:20.332Z,28.75
2023-03-19T06:47:47.738Z,28.47
2023-03-19T06:50:16.540Z,27.88
2023-03-19T06:52:43.975Z,27.60
2023-03-19T06:55:12.389Z,27.36
2023-03-19T06:57:39.458Z,26.91
2023-03-19T07:00:07.443Z,26.85
2023-03-19T07:02:34.273Z,26.19
2023-03-19T07:05:01.050Z,25.62
2023-03-19T07:07:27.868Z,24.79
2023-03-19T07:09:54.585Z,24.52
2023-03-19T07:12:21.556Z,24.84
2023-03-19T07:14:48.320Z,24.27
2023-03-19T07:17:15.483Z,24.09
2023-03-19T07:19:42.327Z,23.50
2023-03-19T07:22:09.123Z,23.02
2023-03-19T07:24:36.071Z,22.67
2023-03-19T07:27:03.235Z,22.20
2023-03-19T07:29:30.172Z,21.80
2023-03-19T07:31:57.462Z,21.27
2023-03-19T07:34:24.537Z,21.10
2023-03-19T07:36:51.708Z,20.54
2023-03-19T07:39:19.079Z,20.16
2023-03-19T07:41:48.649Z,19.97
2023-03-19T07:44:16.609Z,19.56
2023-03-19T07:46:43.439Z,19.46
2023-03-19T07:49:10.446Z,19.13
2023-03-19T07:51:37.323Z,19.37
2023-03-19T07:54:04.260Z,19.50
2023-03-19T07:56:31.293Z,19.56
2023-03-19T07:58:58.496Z,19.44
2023-03-19T08:01:26.133Z,19.75
2023-03-19T08:03:52.970Z,20.00
2023-03-19T08:06:19.742Z,20.26
2023-03-19T08:08:46.866Z,20.25
2023-03-19T08:11:13.694Z,20.13
2023-03-19T08:13:40.482Z,20.69
2023-03-19T08:16:07.368Z,20.80
2023-03-19T08:18:34.831Z,20.79
2023-03-19T08:21:01.814Z,20.96
2023-03-19T08:23:28.669Z,21.01
2023-03-19T08:25:57.150Z,21.25
2023-03-19T08:28:24.089Z,21.56
2023-03-19T08:30:50.974Z,21.53
2023-03-19T08:33:18.118Z,21.56
2023-03-19T08:35:45.014Z,21.73
2023-03-19T08:38:12.081Z,21.92
2023-03-19T08:40:56.736Z,21.96
2023-03-19T08:43:23.548Z,22.40
2023-03-19T08:45:50.381Z,21.99
2023-03-19T08:48:17.325Z,21.83
2023-03-19T08:50:44.109Z,22.10
2023-03-19T08:53:11.126Z,22.51
2023-03-19T08:55:38.065Z,22.24
2023-03-19T08:58:04.952Z,22.07
2023-03-19T09:00:31.887Z,22.14
2023-03-19T09:02:58.756Z,22.31
2023-03-19T09:05:27.575Z,22.23
2023-03-19T09:07:55.496Z,21.86
2023-03-19T09:10:22.351Z,21.87
2023-03-19T09:12:49.307Z,21.92
2023-03-19T09:15:17.079Z,21.73
2023-03-19T09:17:44.462Z,21.94
2023-03-19T09:20:11.612Z,22.27
2023-03-19T09:22:38.479Z,22.38
2023-03-19T09:25:05.926Z,22.16
2023-03-19T09:27:32.755Z,22.33
2023-03-19T09:29:59.701Z,22.70
2023-03-19T09:32:26.735Z,22.95
2023-03-19T09:34:53.779Z,23.26
2023-03-19T09:37:20.592Z,23.18
2023-03-19T09:39:47.474Z,22.71
2023-03-19T09:42:37.073Z,22.52
2023-03-19T09:45:04.639Z,22.68
2023-03-19T09:47:34.211Z,22.63
2023-03-19T09:50:14.771Z,23.04
2023-03-19T09:52:47.166Z,23.30
2023-03-19T09:55:19.346Z,23.35
2023-03-19T09:57:47.737Z,23.11
2023-03-19T10:00:17.530Z,23.19
2023-03-19T10:02:44.476Z,23.02
2023-03-19T10:05:35.984Z,23.02
2023-03-19T10:08:32.866Z,23.01
2023-03-19T10:11:17.922Z,22.94
2023-03-19T10:14:02.560Z,23.21
2023-03-19T10:16:30.824Z,23.12
2023-03-19T10:19:02.841Z,22.89
2023-03-19T10:21:32.400Z,22.85
2023-03-19T10:24:06.605Z,22.92
2023-03-19T10:26:38.004Z,23.16
2023-03-19T10:29:20.878Z,23.33
2023-03-19T10:32:09.309Z,23.62
2023-03-19T10:34:58.494Z,23.62
2023-03-19T10:37:28.844Z,23.68
2023-03-19T10:39:58.320Z,23.47
2023-03-19T10:42:36.892Z,23.59
2023-03-19T10:45:26.771Z,23.71
2023-03-19T10:47:56.225Z,23.68
2023-03-19T10:50:57.649Z,23.79
2023-03-19T10:53:35.591Z,23.97
2023-03-19T10:56:24.252Z,24.00
2023-03-19T10:59:06.362Z,24.09
2023-03-19T11:01:39.940Z,24.03
2023-03-19T11:04:18.707Z,24.04
2023-03-19T11:06:50.848Z,24.43
2023-03-19T11:09:28.549Z,24.58
2023-03-19T11:12:05.655Z,24.46
2023-03-19T11:14:39.628Z,24.27
2023-03-19T11:17:18.313Z,24.50
2023-03-19T11:19:52.480Z,24.75
2023-03-19T11:22:23.198Z,24.71
2023-03-19T11:24:54.458Z,24.57
2023-03-19T11:27:34.969Z,24.54
2023-03-19T11:30:07.154Z,24.91
2023-03-19T11:32:58.504Z,25.01
2023-03-19T11:35:57.261Z,25.09
2023-03-19T11:38:52.567Z,25.18
2023-03-19T11:41:57.045Z,25.12
2023-03-19T11:44:35.531Z,25.33
2023-03-19T11:47:17.850Z,25.13
2023-03-19T11:50:18.789Z,25.39
2023-03-19T11:53:11.677Z,25.41
2023-03-19T11:55:57.415Z,25.47
2023-03-19T11:58:30.256Z,25.55
2023-03-19T12:01:01.721Z,25.32
2023-03-19T12:03:56.579Z,25.50
2023-03-19T12:07:01.131Z,25.34
2023-03-19T12:09:57.371Z,25.45
2023-03-19T12:12:37.029Z,25.74
2023-03-19T12:15:20.734Z,25.79
2023-03-19T12:18:03.050Z,25.77
2023-03-19T12:20:42.308Z,26.18
2023-03-19T12:23:37.698Z,26.31
2023-03-19T12:26:10.064Z,26.35
2023-03-19T12:28:43.837Z,26.34
2023-03-19T12:31:36.352Z,26.26
2023-03-19T12:34:34.122Z,26.40
2023-03-19T12:37:14.847Z,26.47
2023-03-19T12:39:53.173Z,26.66
2023-03-19T12:42:22.479Z,26.65
2023-03-19T12:44:57.308Z,26.63
2023-03-19T12:47:33.940Z,26.32
2023-03-19T12:50:27.469Z,26.52
2023-03-19T12:52:58.616Z,26.55
2023-03-19T12:55:43.668Z,26.68
2023-03-19T12:58:14.553Z,26.73
2023-03-19T13:01:03.613Z,26.49
2023-03-19T13:03:53.538Z,26.69
2023-03-19T13:06:23.704Z,27.08
2023-03-19T13:09:04.014Z,27.01
2023-03-19T13:11:39.813Z,27.04
2023-03-19T13:14:17.436Z,26.77
2023-03-19T13:16:57.924Z,26.82
2023-03-19T13:19:35.700Z,26.76
2023-03-19T13:22:11.845Z,26.72
2023-03-19T13:24:41.701Z,26.81
2023-03-19T13:27:16.424Z,26.87
2023-03-19T13:33:04.439Z,26.88
2023-03-19T13:35:45.746Z,26.93
2023-03-19T13:38:19.053Z,26.95
2023-03-19T13:40:51.498Z,27.13
2023-03-19T13:43:44.303Z,27.15
2023-03-19T13:46:13.891Z,27.10
2023-03-19T13:48:46.558Z,27.28
2023-03-19T13:51:17.814Z,27.34
2023-03-19T13:53:54.228Z,27.22
2023-03-19T13:56:30.002Z,27.08
2023-03-19T13:59:16.142Z,27.39
2023-03-19T14:01:44.931Z,27.39
2023-03-19T14:04:35.344Z,27.57
2023-03-19T14:07:18.203Z,27.68
2023-03-19T14:09:49.563Z,27.66
2023-03-19T14:12:26.105Z,27.83
2023-03-19T14:14:58.663Z,27.76
2023-03-19T14:17:38.512Z,27.79
2023-03-19T14:20:37.608Z,27.83
2023-03-19T14:23:06.524Z,27.80
2023-03-19T14:26:05.275Z,28.00
2023-03-19T14:28:59.348Z,28.08
2023-03-19T14:31:47.609Z,28.41
2023-03-19T14:34:34.304Z,28.48
2023-03-19T14:37:08.423Z,28.18
2023-03-19T14:39:49.060Z,28.49
2023-03-19T14:42:19.926Z,28.57
2023-03-19T14:45:18.515Z,28.25
2023-03-19T14:48:05.885Z,28.12
2023-03-19T14:50:35.709Z,27.85
2023-03-19T14:53:15.589Z,27.48
2023-03-19T14:55:43.032Z,27.64
2023-03-19T14:58:13.025Z,27.61
2023-03-19T15:00:47.217Z,27.63
2023-03-19T15:03:28.639Z,27.61
2023-03-19T15:06:01.122Z,27.63
2023-03-19T15:08:31.482Z,27.54
2023-03-19T15:11:19.309Z,27.54
2023-03-19T15:14:12.759Z,27.69
2023-03-19T15:16:54.571Z,27.62
2023-03-19T15:19:28.876Z,27.61
2023-03-19T15:22:13.508Z,27.67
2023-03-19T15:24:40.903Z,27.82
2023-03-19T15:40:11.518Z,28.24
2023-03-19T15:42:39.385Z,28.07
2023-03-19T15:45:14.982Z,28.16
2023-03-19T15:47:54.463Z,28.12
2023-03-19T15:50:25.961Z,28.39
2023-03-19T15:52:59.531Z,28.52
2023-03-19T15:55:26.540Z,28.52
2023-03-19T15:57:58.002Z,28.61
2023-03-19T16:00:25.326Z,28.52
2023-03-19T16:02:52.886Z,28.51
2023-03-19T16:05:29.812Z,28.53
2023-03-19T16:08:17.870Z,28.72
2023-03-19T16:10:45.934Z,28.59
2023-03-19T16:13:31.208Z,28.64
2023-03-19T16:16:05.293Z,28.50
2023-03-19T16:18:45.556Z,28.58
2023-03-19T16:21:18.132Z,28.44
2023-03-19T16:24:14.144Z,28.47
2023-03-19T16:26:44.495Z,28.43
2023-03-19T16:29:22.744Z,28.71
2023-03-19T16:31:52.255Z,28.67
2023-03-19T16:34:31.989Z,28.86
2023-03-19T16:36:59.779Z,29.05
2023-03-19T16:39:37.095Z,29.00
2023-03-19T16:42:09.538Z,29.12
2023-03-19T16:44:41.028Z,29.09
2023-03-19T16:47:12.741Z,29.45
2023-03-19T16:49:39.562Z,29.60
2023-03-19T16:52:12.179Z,29.67
2023-03-19T16:54:38.995Z,29.63
2023-03-19T16:57:06.214Z,29.93
2023-03-19T16:59:33.165Z,29.89
2023-03-19T17:02:00.043Z,29.96
2023-03-19T17:04:29.112Z,30.07
2023-03-19T17:06:56.100Z,30.24
2023-03-19T17:09:23.607Z,30.29
2023-03-19T17:11:50.742Z,30.66
2023-03-19T17:14:21.284Z,30.87
2023-03-19T17:16:50.854Z,31.00
2023-03-19T17:19:22.208Z,31.00
2023-03-19T17:21:53.542Z,31.16
2023-03-19T17:24:30.065Z,31.33
2023-03-19T17:26:59.451Z,31.57
2023-03-19T17:29:27.300Z,31.72
2023-03-19T17:31:56.043Z,31.97
2023-03-19T17:34:26.579Z,32.24
2023-03-19T17:37:04.233Z,32.52
2023-03-19T17:39:31.627Z,32.98
2023-03-19T17:41:59.718Z,33.19
2023-03-19T17:44:27.979Z,33.34
2023-03-19T17:46:57.145Z,33.45
2023-03-19T17:49:30.132Z,33.63
2023-03-19T17:51:57.431Z,33.93
2023-03-19T17:54:26.856Z,34.06
2023-03-19T17:56:56.750Z,34.27
2023-03-19T17:59:24.075Z,34.45
2023-03-19T18:01:52.216Z,34.70
2023-03-19T18:04:21.480Z,34.68
2023-03-19T18:06:56.655Z,34.92
2023-03-19T18:09:27.005Z,35.08
2023-03-19T18:11:54.374Z,35.00
2023-03-19T18:14:21.349Z,35.18
2023-03-19T18:16:48.590Z,35.46
2023-03-19T18:19:37.745Z,35.50
2023-03-19T18:22:16.701Z,35.80
2023-03-19T18:24:44.365Z,35.87
2023-03-19T18:27:11.218Z,35.96
2023-03-19T18:29:38.445Z,36.08
2023-03-19T18:32:13.150Z,36.27
2023-03-19T18:34:39.918Z,36.47
2023-03-19T18:37:06.845Z,36.79
2023-03-19T18:39:38.094Z,36.81
2023-03-19T18:42:04.963Z,36.89
2023-03-19T18:44:31.928Z,36.97
2023-03-19T18:46:58.828Z,37.04
2023-03-19T18:49:27.440Z,37.43
2023-03-19T18:52:02.753Z,37.44
2023-03-19T18:54:33.550Z,37.43
2023-03-19T18:57:01.788Z,37.60
2023-03-19T18:59:33.118Z,37.76
2023-03-19T19:07:29.991Z,38.36
2023-03-19T19:09:56.817Z,38.47
2023-03-19T19:12:27.188Z,38.40
2023-03-19T19:14:54.112Z,38.62
2023-03-19T19:17:24.802Z,38.67
2023-03-19T19:19:51.658Z,38.88
2023-03-19T19:22:19.630Z,39.03
2023-03-19T19:24:47.150Z,39.19
2023-03-19T19:27:22.143Z,38.95
2023-03-19T19:29:50.372Z,38.93
2023-03-19T19:32:20.889Z,39.33
2023-03-19T19:35:08.009Z,39.55
2023-03-19T19:37:35.202Z,39.35
2023-03-19T19:40:04.526Z,39.47
2023-03-19T20:02:57.480Z,40.52
2023-03-19T20:05:28.031Z,41.15
2023-03-19T20:07:58.578Z,41.10
2023-03-19T20:10:28.084Z,41.36
2023-03-19T20:12:58.685Z,41.31
2023-03-19T20:15:29.539Z,41.46
2023-03-19T20:17:58.011Z,41.69
2023-03-19T20:20:28.251Z,41.78
2023-03-19T20:22:56.852Z,41.96
2023-03-19T20:25:26.629Z,42.12
2023-03-19T20:27:59.479Z,42.25
2023-03-19T20:30:27.900Z,42.22
2023-03-19T20:32:56.299Z,42.33
2023-03-19T20:35:26.214Z,42.59
2023-03-19T20:37:54.595Z,42.42
2023-03-19T20:40:24.278Z,42.51
2023-03-19T20:42:52.617Z,42.53
2023-03-19T20:45:24.875Z,42.62
2023-03-19T20:47:55.907Z,42.47
2023-03-19T20:50:28.778Z,42.56
2023-03-19T20:53:01.277Z,42.74
2023-03-19T20:55:35.085Z,42.88
2023-03-19T20:58:04.327Z,43.00
2023-03-19T21:00:33.789Z,43.39
2023-03-19T21:03:02.400Z,43.56
2023-03-19T21:05:36.512Z,43.45
2023-03-19T21:08:12.078Z,43.57
2023-03-19T21:10:44.772Z,43.70
2023-03-19T21:13:17.916Z,43.90
2023-03-19T21:15:46.491Z,43.94
2023-03-19T21:18:13.837Z,43.94
2023-03-19T21:20:42.697Z,44.03
2023-03-19T21:23:19.066Z,44.12
2023-03-19T21:25:47.321Z,44.22
2023-03-19T21:28:29.485Z,44.41
2023-03-19T21:30:57.796Z,44.49
2023-03-19T21:33:28.160Z,44.76
2023-03-19T21:35:56.488Z,45.12
2023-03-19T21:38:23.701Z,45.24
